Portada
METAR-TAF:

METAR-TAF

Aeroports :

Entrammes

Laval, França

latitud: 48-01-56N, longitud: 000-44-34W, altitud: 101 m

Observació

L'informe es va fer fa 40 minuts, a les 13:00 UTC
Vent 3 kt del Oest, variant entre Sud/Sud-Oest i Nord/Nord-Oest
Temperatura 25°C
Humitat 50%
Pressió 1023 hPa
Visibilitat 10 km o més
Cel ennuvolat a una alçada de 4600 ft

METAR: LFOV 211300Z AUTO 27003KT 200V340 9999 BKN046 25/14 Q1023

Hora: 15:40 (13:40 UTC)


TAF: manca

Observacions i pronòstics meteorològics de més de 4000 aeroports (METAR i TAF).

Les estacions disponibles són els punts grocs i vermells al mapa.

Posi el ratolí al punt desitjat per veure el nom de l'estació.

Feu clic per veure les observacions i els pronòstics meteorològics.

Per canviar el mapa: feu clic els botons verds amb una creu de color negre per apropar; al botó verd amb un guió per allunyar la imatge; o en les fletxes verdes per a mapes adjacents.


METAR-TAF: